Terminal Aerodrome Forecast
Issued by NWS

Home | Current Version | Previous Version | Text Only | Print | Product List | Glossary On
Versions: 1 2 3 4 5 6 7 8 9 10 11 12 13 14 15 16
000
FTUS45 KVEF 261700
TAFVGT
TAF
KVGT 261720Z 2618/2718 14010KT P6SM FEW150
     FM261900 19010KT P6SM SCT100 SCT150
     FM270700 VRB05KT P6SM FEW150=

USA.gov is the U.S. government's official web portal to all federal, state and local government web resources and services.